sensor_id;sensor_type;location;lat;lon;timestamp;temperature;humidity
45549;DHT22;31270;48.328;10.096;2022-11-20T00:00:36;4.30;99.90
45549;DHT22;31270;48.328;10.096;2022-11-20T00:03:02;4.20;99.90
45549;DHT22;31270;48.328;10.096;2022-11-20T00:05:28;4.20;99.90
45549;DHT22;31270;48.328;10.096;2022-11-20T00:07:53;4.20;99.90
45549;DHT22;31270;48.328;10.096;2022-11-20T00:10:19;4.20;99.90
45549;DHT22;31270;48.328;10.096;2022-11-20T00:12:44;4.10;99.90
45549;DHT22;31270;48.328;10.096;2022-11-20T00:15:10;4.10;99.90
45549;DHT22;31270;48.328;10.096;2022-11-20T00:17:35;4.10;99.90
45549;DHT22;31270;48.328;10.096;2022-11-20T00:20:01;4.10;99.90
45549;DHT22;31270;48.328;10.096;2022-11-20T00:22:27;4.00;99.90
45549;DHT22;31270;48.328;10.096;2022-11-20T00:24:52;4.00;99.90
45549;DHT22;31270;48.328;10.096;2022-11-20T00:27:18;3.90;99.90
45549;DHT22;31270;48.328;10.096;2022-11-20T00:29:43;3.90;99.90
45549;DHT22;31270;48.328;10.096;2022-11-20T00:32:09;3.90;99.90
45549;DHT22;31270;48.328;10.096;2022-11-20T00:34:35;3.90;99.90
45549;DHT22;31270;48.328;10.096;2022-11-20T00:37:00;3.90;99.90
45549;DHT22;31270;48.328;10.096;2022-11-20T00:39:29;3.90;99.90
45549;DHT22;31270;48.328;10.096;2022-11-20T00:41:55;3.90;99.90
45549;DHT22;31270;48.328;10.096;2022-11-20T00:44:21;3.90;99.90
45549;DHT22;31270;48.328;10.096;2022-11-20T00:46:46;3.90;99.90
45549;DHT22;31270;48.328;10.096;2022-11-20T00:49:12;3.90;99.90
45549;DHT22;31270;48.328;10.096;2022-11-20T00:51:37;3.90;99.90
45549;DHT22;31270;48.328;10.096;2022-11-20T00:54:03;3.90;99.90
45549;DHT22;31270;48.328;10.096;2022-11-20T00:56:28;3.90;99.90
45549;DHT22;31270;48.328;10.096;2022-11-20T00:58:54;4.00;99.90
45549;DHT22;31270;48.328;10.096;2022-11-20T01:01:25;4.00;99.90
45549;DHT22;31270;48.328;10.096;2022-11-20T01:03:52;4.00;99.90
45549;DHT22;31270;48.328;10.096;2022-11-20T01:06:19;4.00;99.90
45549;DHT22;31270;48.328;10.096;2022-11-20T01:08:46;4.00;99.90
45549;DHT22;31270;48.328;10.096;2022-11-20T01:11:15;4.00;99.90
45549;DHT22;31270;48.328;10.096;2022-11-20T01:13:42;4.00;99.90
45549;DHT22;31270;48.328;10.096;2022-11-20T01:16:16;4.00;99.90
45549;DHT22;31270;48.328;10.096;2022-11-20T01:18:44;4.00;99.90
45549;DHT22;31270;48.328;10.096;2022-11-20T01:21:13;3.90;99.90
45549;DHT22;31270;48.328;10.096;2022-11-20T01:23:41;3.90;99.90
45549;DHT22;31270;48.328;10.096;2022-11-20T01:26:12;3.90;99.90
45549;DHT22;31270;48.328;10.096;2022-11-20T01:28:39;3.90;99.90
45549;DHT22;31270;48.328;10.096;2022-11-20T01:31:16;3.80;99.90
45549;DHT22;31270;48.328;10.096;2022-11-20T01:33:43;3.80;99.90
45549;DHT22;31270;48.328;10.096;2022-11-20T01:36:10;3.70;99.90
45549;DHT22;31270;48.328;10.096;2022-11-20T01:38:36;3.70;99.90
45549;DHT22;31270;48.328;10.096;2022-11-20T01:41:08;3.70;99.90
45549;DHT22;31270;48.328;10.096;2022-11-20T01:43:35;3.60;99.90
45549;DHT22;31270;48.328;10.096;2022-11-20T01:48:55;3.60;99.90
45549;DHT22;31270;48.328;10.096;2022-11-20T01:54:13;3.60;99.90
45549;DHT22;31270;48.328;10.096;2022-11-20T01:56:41;3.60;99.90
45549;DHT22;31270;48.328;10.096;2022-11-20T01:59:10;3.50;99.90
45549;DHT22;31270;48.328;10.096;2022-11-20T02:01:38;3.50;99.90
45549;DHT22;31270;48.328;10.096;2022-11-20T02:04:05;3.50;99.90
45549;DHT22;31270;48.328;10.096;2022-11-20T02:06:35;3.50;99.90
45549;DHT22;31270;48.328;10.096;2022-11-20T02:09:02;3.50;99.90
45549;DHT22;31270;48.328;10.096;2022-11-20T02:11:30;3.50;99.90
45549;DHT22;31270;48.328;10.096;2022-11-20T02:13:55;3.50;99.90
45549;DHT22;31270;48.328;10.096;2022-11-20T02:16:34;3.40;99.90
45549;DHT22;31270;48.328;10.096;2022-11-20T02:19:02;3.60;99.90
45549;DHT22;31270;48.328;10.096;2022-11-20T02:24:23;3.40;99.90
45549;DHT22;31270;48.328;10.096;2022-11-20T02:26:50;3.40;99.90
45549;DHT22;31270;48.328;10.096;2022-11-20T02:29:23;3.50;99.90
45549;DHT22;31270;48.328;10.096;2022-11-20T02:31:49;3.50;99.90
45549;DHT22;31270;48.328;10.096;2022-11-20T02:34:15;3.50;99.90
45549;DHT22;31270;48.328;10.096;2022-11-20T02:36:41;3.50;99.90
45549;DHT22;31270;48.328;10.096;2022-11-20T02:39:09;3.60;99.90
45549;DHT22;31270;48.328;10.096;2022-11-20T02:41:36;3.60;99.90
45549;DHT22;31270;48.328;10.096;2022-11-20T02:44:03;3.60;99.90
45549;DHT22;31270;48.328;10.096;2022-11-20T02:46:29;3.60;99.90
45549;DHT22;31270;48.328;10.096;2022-11-20T02:48:55;3.70;99.90
45549;DHT22;31270;48.328;10.096;2022-11-20T02:51:21;3.70;99.90
45549;DHT22;31270;48.328;10.096;2022-11-20T02:53:46;3.70;99.90
45549;DHT22;31270;48.328;10.096;2022-11-20T02:56:12;3.70;99.90
45549;DHT22;31270;48.328;10.096;2022-11-20T02:58:38;3.80;99.90
45549;DHT22;31270;48.328;10.096;2022-11-20T03:01:04;3.70;99.90
45549;DHT22;31270;48.328;10.096;2022-11-20T03:03:29;3.70;99.90
45549;DHT22;31270;48.328;10.096;2022-11-20T03:05:55;3.70;99.90
45549;DHT22;31270;48.328;10.096;2022-11-20T03:08:21;3.70;99.90
45549;DHT22;31270;48.328;10.096;2022-11-20T03:10:46;3.60;99.90
45549;DHT22;31270;48.328;10.096;2022-11-20T03:13:12;3.70;99.90
45549;DHT22;31270;48.328;10.096;2022-11-20T03:15:38;3.60;99.90
45549;DHT22;31270;48.328;10.096;2022-11-20T03:18:04;3.70;99.90
45549;DHT22;31270;48.328;10.096;2022-11-20T03:20:30;3.70;99.90
45549;DHT22;31270;48.328;10.096;2022-11-20T03:22:57;3.60;99.90
45549;DHT22;31270;48.328;10.096;2022-11-20T03:25:23;3.60;99.90
45549;DHT22;31270;48.328;10.096;2022-11-20T03:27:48;3.70;99.90
45549;DHT22;31270;48.328;10.096;2022-11-20T03:30:14;3.60;99.90
45549;DHT22;31270;48.328;10.096;2022-11-20T03:32:40;3.60;99.90
45549;DHT22;31270;48.328;10.096;2022-11-20T03:35:06;3.60;99.90
45549;DHT22;31270;48.328;10.096;2022-11-20T03:37:32;3.60;99.90
45549;DHT22;31270;48.328;10.096;2022-11-20T03:39:57;3.50;99.90
45549;DHT22;31270;48.328;10.096;2022-11-20T03:42:23;3.40;99.90
45549;DHT22;31270;48.328;10.096;2022-11-20T03:45:07;3.50;99.90
45549;DHT22;31270;48.328;10.096;2022-11-20T03:47:33;3.40;99.90
45549;DHT22;31270;48.328;10.096;2022-11-20T03:49:59;3.40;99.90
45549;DHT22;31270;48.328;10.096;2022-11-20T03:52:25;3.40;99.90
45549;DHT22;31270;48.328;10.096;2022-11-20T03:54:50;3.40;99.90
45549;DHT22;31270;48.328;10.096;2022-11-20T03:57:16;3.40;99.90
45549;DHT22;31270;48.328;10.096;2022-11-20T03:59:42;3.40;99.90
45549;DHT22;31270;48.328;10.096;2022-11-20T04:02:07;3.40;99.90
45549;DHT22;31270;48.328;10.096;2022-11-20T04:04:33;3.40;99.90
45549;DHT22;31270;48.328;10.096;2022-11-20T04:06:59;3.40;99.90
45549;DHT22;31270;48.328;10.096;2022-11-20T04:09:24;3.40;99.90
45549;DHT22;31270;48.328;10.096;2022-11-20T04:11:50;3.30;99.90
45549;DHT22;31270;48.328;10.096;2022-11-20T04:14:16;3.30;99.90
45549;DHT22;31270;48.328;10.096;2022-11-20T04:16:42;3.30;99.90
45549;DHT22;31270;48.328;10.096;2022-11-20T04:19:14;3.30;99.90
45549;DHT22;31270;48.328;10.096;2022-11-20T04:21:40;3.30;99.90
45549;DHT22;31270;48.328;10.096;2022-11-20T04:24:06;3.30;99.90
45549;DHT22;31270;48.328;10.096;2022-11-20T04:26:33;3.30;99.90
45549;DHT22;31270;48.328;10.096;2022-11-20T04:28:59;3.30;99.90
45549;DHT22;31270;48.328;10.096;2022-11-20T04:31:28;3.30;99.90
45549;DHT22;31270;48.328;10.096;2022-11-20T04:33:54;3.30;99.90
45549;DHT22;31270;48.328;10.096;2022-11-20T04:36:23;3.30;99.90
45549;DHT22;31270;48.328;10.096;2022-11-20T04:38:57;3.40;99.90
45549;DHT22;31270;48.328;10.096;2022-11-20T04:41:24;3.40;99.90
45549;DHT22;31270;48.328;10.096;2022-11-20T04:43:53;3.40;99.90
45549;DHT22;31270;48.328;10.096;2022-11-20T04:46:25;3.40;99.90
45549;DHT22;31270;48.328;10.096;2022-11-20T04:48:51;3.40;99.90
45549;DHT22;31270;48.328;10.096;2022-11-20T04:51:17;3.40;99.90
45549;DHT22;31270;48.328;10.096;2022-11-20T04:53:42;3.40;99.90
45549;DHT22;31270;48.328;10.096;2022-11-20T04:56:10;3.50;99.90
45549;DHT22;31270;48.328;10.096;2022-11-20T04:58:37;3.50;99.90
45549;DHT22;31270;48.328;10.096;2022-11-20T05:01:03;3.50;99.90
45549;DHT22;31270;48.328;10.096;2022-11-20T05:03:29;3.50;99.90
45549;DHT22;31270;48.328;10.096;2022-11-20T05:05:55;3.50;99.90
45549;DHT22;31270;48.328;10.096;2022-11-20T05:08:20;3.50;99.90
45549;DHT22;31270;48.328;10.096;2022-11-20T05:10:46;3.50;99.90
45549;DHT22;31270;48.328;10.096;2022-11-20T05:13:12;3.50;99.90
45549;DHT22;31270;48.328;10.096;2022-11-20T05:15:37;3.50;99.90
45549;DHT22;31270;48.328;10.096;2022-11-20T05:18:03;3.50;99.90
45549;DHT22;31270;48.328;10.096;2022-11-20T05:20:29;3.50;99.90
45549;DHT22;31270;48.328;10.096;2022-11-20T05:22:57;3.50;99.90
45549;DHT22;31270;48.328;10.096;2022-11-20T05:25:23;3.50;99.90
45549;DHT22;31270;48.328;10.096;2022-11-20T05:27:49;3.50;99.90
45549;DHT22;31270;48.328;10.096;2022-11-20T05:30:14;3.50;99.90
45549;DHT22;31270;48.328;10.096;2022-11-20T05:32:40;3.50;99.90
45549;DHT22;31270;48.328;10.096;2022-11-20T05:35:06;3.50;99.90
45549;DHT22;31270;48.328;10.096;2022-11-20T05:37:32;3.50;99.90
45549;DHT22;31270;48.328;10.096;2022-11-20T05:39:58;3.50;99.90
45549;DHT22;31270;48.328;10.096;2022-11-20T05:42:24;3.60;99.90
45549;DHT22;31270;48.328;10.096;2022-11-20T05:44:56;3.50;99.90
45549;DHT22;31270;48.328;10.096;2022-11-20T05:47:22;3.60;99.90
45549;DHT22;31270;48.328;10.096;2022-11-20T05:49:47;3.50;99.90
45549;DHT22;31270;48.328;10.096;2022-11-20T05:52:13;3.60;99.90
45549;DHT22;31270;48.328;10.096;2022-11-20T05:54:38;3.50;99.90
45549;DHT22;31270;48.328;10.096;2022-11-20T05:57:04;3.60;99.90
45549;DHT22;31270;48.328;10.096;2022-11-20T05:59:30;3.60;99.90
45549;DHT22;31270;48.328;10.096;2022-11-20T06:01:55;3.50;99.90
45549;DHT22;31270;48.328;10.096;2022-11-20T06:04:21;3.50;99.90
45549;DHT22;31270;48.328;10.096;2022-11-20T06:06:46;3.50;99.90
45549;DHT22;31270;48.328;10.096;2022-11-20T06:09:12;3.50;99.90
45549;DHT22;31270;48.328;10.096;2022-11-20T06:11:37;3.50;99.90
45549;DHT22;31270;48.328;10.096;2022-11-20T06:14:03;3.50;99.90
45549;DHT22;31270;48.328;10.096;2022-11-20T06:16:29;3.40;99.90
45549;DHT22;31270;48.328;10.096;2022-11-20T06:18:54;3.40;99.90
45549;DHT22;31270;48.328;10.096;2022-11-20T06:21:21;3.40;99.90
45549;DHT22;31270;48.328;10.096;2022-11-20T06:23:48;3.40;99.90
45549;DHT22;31270;48.328;10.096;2022-11-20T06:26:25;3.40;99.90
45549;DHT22;31270;48.328;10.096;2022-11-20T06:28:52;3.40;99.90
45549;DHT22;31270;48.328;10.096;2022-11-20T06:31:20;3.40;99.90
45549;DHT22;31270;48.328;10.096;2022-11-20T06:33:46;3.50;99.90
45549;DHT22;31270;48.328;10.096;2022-11-20T06:36:13;3.50;99.90
45549;DHT22;31270;48.328;10.096;2022-11-20T06:38:40;3.50;99.90
45549;DHT22;31270;48.328;10.096;2022-11-20T06:41:12;3.50;99.90
45549;DHT22;31270;48.328;10.096;2022-11-20T06:43:38;3.60;99.90
45549;DHT22;31270;48.328;10.096;2022-11-20T06:46:04;3.70;99.90
45549;DHT22;31270;48.328;10.096;2022-11-20T06:48:30;3.60;99.90
45549;DHT22;31270;48.328;10.096;2022-11-20T06:50:56;3.60;99.90
45549;DHT22;31270;48.328;10.096;2022-11-20T06:53:22;3.70;99.90
45549;DHT22;31270;48.328;10.096;2022-11-20T06:55:48;3.70;99.90
45549;DHT22;31270;48.328;10.096;2022-11-20T06:58:15;3.70;99.90
45549;DHT22;31270;48.328;10.096;2022-11-20T07:00:41;3.70;99.90
45549;DHT22;31270;48.328;10.096;2022-11-20T07:03:09;3.80;99.90
45549;DHT22;31270;48.328;10.096;2022-11-20T07:05:35;3.80;99.90
45549;DHT22;31270;48.328;10.096;2022-11-20T07:08:02;3.80;99.90
45549;DHT22;31270;48.328;10.096;2022-11-20T07:10:28;3.80;99.90
45549;DHT22;31270;48.328;10.096;2022-11-20T07:12:54;3.80;99.90
45549;DHT22;31270;48.328;10.096;2022-11-20T07:15:21;3.80;99.90
45549;DHT22;31270;48.328;10.096;2022-11-20T07:17:48;3.80;99.90
45549;DHT22;31270;48.328;10.096;2022-11-20T07:20:14;3.90;99.90
45549;DHT22;31270;48.328;10.096;2022-11-20T07:22:40;3.90;99.90
45549;DHT22;31270;48.328;10.096;2022-11-20T07:25:06;3.90;99.90
45549;DHT22;31270;48.328;10.096;2022-11-20T07:27:32;4.00;99.90
45549;DHT22;31270;48.328;10.096;2022-11-20T07:29:58;4.00;99.90
45549;DHT22;31270;48.328;10.096;2022-11-20T07:32:23;4.00;99.90
45549;DHT22;31270;48.328;10.096;2022-11-20T07:34:49;4.10;99.90
45549;DHT22;31270;48.328;10.096;2022-11-20T07:37:15;4.10;99.90
45549;DHT22;31270;48.328;10.096;2022-11-20T07:39:42;4.10;99.90
45549;DHT22;31270;48.328;10.096;2022-11-20T07:42:08;4.20;99.90
45549;DHT22;31270;48.328;10.096;2022-11-20T07:44:34;4.20;99.90
45549;DHT22;31270;48.328;10.096;2022-11-20T07:47:00;4.20;99.90
45549;DHT22;31270;48.328;10.096;2022-11-20T07:49:26;4.30;99.90
45549;DHT22;31270;48.328;10.096;2022-11-20T07:51:52;4.30;99.90
45549;DHT22;31270;48.328;10.096;2022-11-20T07:54:21;4.30;99.90
45549;DHT22;31270;48.328;10.096;2022-11-20T07:56:47;4.40;99.90
45549;DHT22;31270;48.328;10.096;2022-11-20T07:59:13;4.40;99.90
45549;DHT22;31270;48.328;10.096;2022-11-20T08:01:39;4.50;99.90
45549;DHT22;31270;48.328;10.096;2022-11-20T08:04:06;4.50;99.90
45549;DHT22;31270;48.328;10.096;2022-11-20T08:06:32;4.60;99.90
45549;DHT22;31270;48.328;10.096;2022-11-20T08:08:58;4.60;99.90
45549;DHT22;31270;48.328;10.096;2022-11-20T08:11:24;4.70;99.90
45549;DHT22;31270;48.328;10.096;2022-11-20T08:14:08;4.70;99.90
45549;DHT22;31270;48.328;10.096;2022-11-20T08:16:48;4.70;99.90
45549;DHT22;31270;48.328;10.096;2022-11-20T08:19:15;4.70;99.90
45549;DHT22;31270;48.328;10.096;2022-11-20T08:21:41;4.70;99.90
45549;DHT22;31270;48.328;10.096;2022-11-20T08:24:09;4.70;99.90
45549;DHT22;31270;48.328;10.096;2022-11-20T08:26:36;4.60;99.90
45549;DHT22;31270;48.328;10.096;2022-11-20T08:29:03;4.60;99.90
45549;DHT22;31270;48.328;10.096;2022-11-20T08:31:28;4.60;99.90
45549;DHT22;31270;48.328;10.096;2022-11-20T08:33:55;4.60;99.90
45549;DHT22;31270;48.328;10.096;2022-11-20T08:36:22;4.70;99.90
45549;DHT22;31270;48.328;10.096;2022-11-20T08:38:49;4.70;99.90
45549;DHT22;31270;48.328;10.096;2022-11-20T08:41:15;4.70;99.90
45549;DHT22;31270;48.328;10.096;2022-11-20T08:44:00;4.70;99.90
45549;DHT22;31270;48.328;10.096;2022-11-20T08:46:31;4.70;99.90
45549;DHT22;31270;48.328;10.096;2022-11-20T08:48:58;4.70;99.90
45549;DHT22;31270;48.328;10.096;2022-11-20T08:51:25;4.70;99.90
45549;DHT22;31270;48.328;10.096;2022-11-20T08:53:51;4.70;99.90
45549;DHT22;31270;48.328;10.096;2022-11-20T08:56:17;4.70;99.90
45549;DHT22;31270;48.328;10.096;2022-11-20T08:58:43;4.70;99.90
45549;DHT22;31270;48.328;10.096;2022-11-20T09:01:09;4.70;99.90
45549;DHT22;31270;48.328;10.096;2022-11-20T09:03:35;4.80;99.90
45549;DHT22;31270;48.328;10.096;2022-11-20T09:06:06;4.80;99.90
45549;DHT22;31270;48.328;10.096;2022-11-20T09:08:32;4.90;99.90
45549;DHT22;31270;48.328;10.096;2022-11-20T09:10:58;5.00;99.90
45549;DHT22;31270;48.328;10.096;2022-11-20T09:13:26;5.00;99.90
45549;DHT22;31270;48.328;10.096;2022-11-20T09:15:55;5.00;99.90
45549;DHT22;31270;48.328;10.096;2022-11-20T09:18:22;5.10;99.90
45549;DHT22;31270;48.328;10.096;2022-11-20T09:20:47;5.20;99.90
45549;DHT22;31270;48.328;10.096;2022-11-20T09:23:14;5.30;99.90
45549;DHT22;31270;48.328;10.096;2022-11-20T09:25:39;5.40;99.90
45549;DHT22;31270;48.328;10.096;2022-11-20T09:28:05;5.40;99.90
45549;DHT22;31270;48.328;10.096;2022-11-20T09:30:31;5.60;99.90
45549;DHT22;31270;48.328;10.096;2022-11-20T09:32:58;5.60;99.90
45549;DHT22;31270;48.328;10.096;2022-11-20T09:35:23;5.60;99.90
45549;DHT22;31270;48.328;10.096;2022-11-20T09:37:49;5.60;99.90
45549;DHT22;31270;48.328;10.096;2022-11-20T09:40:23;5.70;99.90
45549;DHT22;31270;48.328;10.096;2022-11-20T09:53:46;5.70;99.90
45549;DHT22;31270;48.328;10.096;2022-11-20T09:56:17;5.70;99.90
45549;DHT22;31270;48.328;10.096;2022-11-20T09:58:52;5.70;99.90
45549;DHT22;31270;48.328;10.096;2022-11-20T10:01:25;5.70;99.90
45549;DHT22;31270;48.328;10.096;2022-11-20T10:04:27;5.80;99.90
45549;DHT22;31270;48.328;10.096;2022-11-20T10:10:03;5.80;99.90
45549;DHT22;31270;48.328;10.096;2022-11-20T10:15:58;6.00;99.90
45549;DHT22;31270;48.328;10.096;2022-11-20T10:18:23;6.10;99.90
45549;DHT22;31270;48.328;10.096;2022-11-20T10:23:57;6.20;99.90
45549;DHT22;31270;48.328;10.096;2022-11-20T10:29:29;6.30;99.90
45549;DHT22;31270;48.328;10.096;2022-11-20T10:32:04;6.30;99.90
45549;DHT22;31270;48.328;10.096;2022-11-20T10:34:53;6.40;99.90
45549;DHT22;31270;48.328;10.096;2022-11-20T10:37:25;6.40;99.90
45549;DHT22;31270;48.328;10.096;2022-11-20T10:39:59;6.40;99.90
45549;DHT22;31270;48.328;10.096;2022-11-20T10:42:47;6.40;99.90
45549;DHT22;31270;48.328;10.096;2022-11-20T10:50:24;6.40;99.90
45549;DHT22;31270;48.328;10.096;2022-11-20T10:53:12;6.40;99.90
45549;DHT22;31270;48.328;10.096;2022-11-20T10:55:58;6.50;99.90
45549;DHT22;31270;48.328;10.096;2022-11-20T11:01:21;6.50;99.90
45549;DHT22;31270;48.328;10.096;2022-11-20T11:03:49;6.50;99.90
45549;DHT22;31270;48.328;10.096;2022-11-20T11:08:51;6.50;99.90
45549;DHT22;31270;48.328;10.096;2022-11-20T11:11:24;6.40;99.90
45549;DHT22;31270;48.328;10.096;2022-11-20T11:13:51;6.40;99.90
45549;DHT22;31270;48.328;10.096;2022-11-20T11:16:24;6.30;99.90
45549;DHT22;31270;48.328;10.096;2022-11-20T11:18:50;6.30;99.90
45549;DHT22;31270;48.328;10.096;2022-11-20T11:21:24;6.30;99.90
45549;DHT22;31270;48.328;10.096;2022-11-20T11:24:02;6.30;99.90
45549;DHT22;31270;48.328;10.096;2022-11-20T11:26:28;6.40;99.90
45549;DHT22;31270;48.328;10.096;2022-11-20T11:29:03;6.40;99.90
45549;DHT22;31270;48.328;10.096;2022-11-20T11:31:31;6.40;99.90
45549;DHT22;31270;48.328;10.096;2022-11-20T11:34:11;6.40;99.90
45549;DHT22;31270;48.328;10.096;2022-11-20T11:36:38;6.40;99.90
45549;DHT22;31270;48.328;10.096;2022-11-20T11:39:08;6.40;99.90
45549;DHT22;31270;48.328;10.096;2022-11-20T11:41:36;6.40;99.90
45549;DHT22;31270;48.328;10.096;2022-11-20T11:44:28;6.40;99.90
45549;DHT22;31270;48.328;10.096;2022-11-20T11:47:46;6.40;99.90
45549;DHT22;31270;48.328;10.096;2022-11-20T11:50:14;6.30;99.90
45549;DHT22;31270;48.328;10.096;2022-11-20T11:55:49;6.20;99.90
45549;DHT22;31270;48.328;10.096;2022-11-20T11:58:41;6.30;99.90
45549;DHT22;31270;48.328;10.096;2022-11-20T12:01:41;6.30;99.90
45549;DHT22;31270;48.328;10.096;2022-11-20T12:07:31;6.30;99.90
45549;DHT22;31270;48.328;10.096;2022-11-20T12:09:57;6.30;99.90
45549;DHT22;31270;48.328;10.096;2022-11-20T12:12:29;6.40;99.90
45549;DHT22;31270;48.328;10.096;2022-11-20T12:14:56;6.30;99.90
45549;DHT22;31270;48.328;10.096;2022-11-20T12:17:24;6.30;99.90
45549;DHT22;31270;48.328;10.096;2022-11-20T12:19:49;6.30;99.90
45549;DHT22;31270;48.328;10.096;2022-11-20T12:24:52;6.20;99.90
45549;DHT22;31270;48.328;10.096;2022-11-20T12:27:57;6.30;99.90
45549;DHT22;31270;48.328;10.096;2022-11-20T12:30:25;6.30;99.90
45549;DHT22;31270;48.328;10.096;2022-11-20T12:44:10;6.50;99.90
45549;DHT22;31270;48.328;10.096;2022-11-20T12:50:08;6.50;99.90
45549;DHT22;31270;48.328;10.096;2022-11-20T12:55:41;6.50;99.90
45549;DHT22;31270;48.328;10.096;2022-11-20T13:01:10;6.50;99.90
45549;DHT22;31270;48.328;10.096;2022-11-20T13:04:00;6.60;99.90
45549;DHT22;31270;48.328;10.096;2022-11-20T13:06:32;6.70;99.90
45549;DHT22;31270;48.328;10.096;2022-11-20T13:09:20;6.80;99.90
45549;DHT22;31270;48.328;10.096;2022-11-20T13:14:39;6.80;99.90
45549;DHT22;31270;48.328;10.096;2022-11-20T13:17:17;6.80;99.90
45549;DHT22;31270;48.328;10.096;2022-11-20T13:19:53;6.90;99.90
45549;DHT22;31270;48.328;10.096;2022-11-20T13:22:42;7.10;99.90
45549;DHT22;31270;48.328;10.096;2022-11-20T13:25:28;7.20;99.90
45549;DHT22;31270;48.328;10.096;2022-11-20T13:27:55;7.30;99.90
45549;DHT22;31270;48.328;10.096;2022-11-20T13:30:23;7.30;99.90
45549;DHT22;31270;48.328;10.096;2022-11-20T13:32:52;7.20;99.90
45549;DHT22;31270;48.328;10.096;2022-11-20T13:35:32;7.20;99.90
45549;DHT22;31270;48.328;10.096;2022-11-20T13:38:10;7.20;99.90
45549;DHT22;31270;48.328;10.096;2022-11-20T13:41:00;7.30;99.90
45549;DHT22;31270;48.328;10.096;2022-11-20T13:43:49;7.30;99.90
45549;DHT22;31270;48.328;10.096;2022-11-20T13:46:15;7.20;99.90
45549;DHT22;31270;48.328;10.096;2022-11-20T13:48:43;7.20;99.90
45549;DHT22;31270;48.328;10.096;2022-11-20T13:54:18;7.00;99.90
45549;DHT22;31270;48.328;10.096;2022-11-20T13:56:54;7.00;99.90
45549;DHT22;31270;48.328;10.096;2022-11-20T13:59:58;7.00;99.90
45549;DHT22;31270;48.328;10.096;2022-11-20T14:02:28;7.00;99.90
45549;DHT22;31270;48.328;10.096;2022-11-20T14:04:58;6.90;99.90
45549;DHT22;31270;48.328;10.096;2022-11-20T14:07:35;6.90;99.90
45549;DHT22;31270;48.328;10.096;2022-11-20T14:10:03;6.80;99.90
45549;DHT22;31270;48.328;10.096;2022-11-20T14:12:32;6.80;99.90
45549;DHT22;31270;48.328;10.096;2022-11-20T14:14:58;6.80;99.90
45549;DHT22;31270;48.328;10.096;2022-11-20T14:17:32;6.80;99.90
45549;DHT22;31270;48.328;10.096;2022-11-20T14:20:06;6.80;99.90
45549;DHT22;31270;48.328;10.096;2022-11-20T14:22:33;6.70;99.90
45549;DHT22;31270;48.328;10.096;2022-11-20T14:25:06;6.80;99.90
45549;DHT22;31270;48.328;10.096;2022-11-20T14:27:41;6.80;99.90
45549;DHT22;31270;48.328;10.096;2022-11-20T14:30:17;6.80;99.90
45549;DHT22;31270;48.328;10.096;2022-11-20T14:32:45;6.70;99.90
45549;DHT22;31270;48.328;10.096;2022-11-20T14:35:35;6.70;99.90
45549;DHT22;31270;48.328;10.096;2022-11-20T14:38:02;6.60;99.90
45549;DHT22;31270;48.328;10.096;2022-11-20T14:40:35;6.60;99.90
45549;DHT22;31270;48.328;10.096;2022-11-20T14:46:08;6.40;99.90
45549;DHT22;31270;48.328;10.096;2022-11-20T14:48:46;6.40;99.90
45549;DHT22;31270;48.328;10.096;2022-11-20T14:51:32;6.40;99.90
45549;DHT22;31270;48.328;10.096;2022-11-20T14:54:28;6.30;99.90
45549;DHT22;31270;48.328;10.096;2022-11-20T14:57:02;6.40;99.90
45549;DHT22;31270;48.328;10.096;2022-11-20T14:59:34;6.30;99.90
45549;DHT22;31270;48.328;10.096;2022-11-20T15:02:05;6.30;99.90
45549;DHT22;31270;48.328;10.096;2022-11-20T15:04:32;6.20;99.90
45549;DHT22;31270;48.328;10.096;2022-11-20T15:06:59;6.20;99.90
45549;DHT22;31270;48.328;10.096;2022-11-20T15:09:25;6.20;99.90
45549;DHT22;31270;48.328;10.096;2022-11-20T15:11:59;6.10;99.90
45549;DHT22;31270;48.328;10.096;2022-11-20T15:14:27;6.10;99.90
45549;DHT22;31270;48.328;10.096;2022-11-20T15:16:53;6.20;99.90
45549;DHT22;31270;48.328;10.096;2022-11-20T15:19:22;6.10;99.90
45549;DHT22;31270;48.328;10.096;2022-11-20T15:21:48;6.10;99.90
45549;DHT22;31270;48.328;10.096;2022-11-20T15:24:15;6.20;99.90
45549;DHT22;31270;48.328;10.096;2022-11-20T15:26:41;6.10;99.90
45549;DHT22;31270;48.328;10.096;2022-11-20T15:29:12;6.10;99.90
45549;DHT22;31270;48.328;10.096;2022-11-20T15:31:38;6.00;99.90
45549;DHT22;31270;48.328;10.096;2022-11-20T15:34:12;6.00;99.90
45549;DHT22;31270;48.328;10.096;2022-11-20T15:36:39;6.00;99.90
45549;DHT22;31270;48.328;10.096;2022-11-20T15:39:05;5.90;99.90
45549;DHT22;31270;48.328;10.096;2022-11-20T15:41:33;5.90;99.90
45549;DHT22;31270;48.328;10.096;2022-11-20T15:43:59;5.90;99.90
45549;DHT22;31270;48.328;10.096;2022-11-20T15:46:30;5.70;99.90
45549;DHT22;31270;48.328;10.096;2022-11-20T15:48:59;5.70;99.90
45549;DHT22;31270;48.328;10.096;2022-11-20T15:51:39;5.60;99.90
45549;DHT22;31270;48.328;10.096;2022-11-20T15:54:14;5.50;99.90
45549;DHT22;31270;48.328;10.096;2022-11-20T15:56:41;5.40;99.90
45549;DHT22;31270;48.328;10.096;2022-11-20T15:59:07;5.40;99.90
45549;DHT22;31270;48.328;10.096;2022-11-20T16:01:32;5.30;99.90
45549;DHT22;31270;48.328;10.096;2022-11-20T16:03:59;5.30;99.90
45549;DHT22;31270;48.328;10.096;2022-11-20T16:06:30;5.20;99.90
45549;DHT22;31270;48.328;10.096;2022-11-20T16:08:58;5.10;99.90
45549;DHT22;31270;48.328;10.096;2022-11-20T16:11:24;5.10;99.90
45549;DHT22;31270;48.328;10.096;2022-11-20T16:13:50;5.00;99.90
45549;DHT22;31270;48.328;10.096;2022-11-20T16:16:38;5.20;99.90
45549;DHT22;31270;48.328;10.096;2022-11-20T16:19:08;5.10;99.90
45549;DHT22;31270;48.328;10.096;2022-11-20T16:21:35;5.00;99.90
45549;DHT22;31270;48.328;10.096;2022-11-20T16:24:09;5.10;99.90
45549;DHT22;31270;48.328;10.096;2022-11-20T16:26:49;5.00;99.90
45549;DHT22;31270;48.328;10.096;2022-11-20T16:29:28;5.00;99.90
45549;DHT22;31270;48.328;10.096;2022-11-20T16:32:25;5.00;99.90
45549;DHT22;31270;48.328;10.096;2022-11-20T16:40:19;4.90;99.90
45549;DHT22;31270;48.328;10.096;2022-11-20T16:42:46;4.90;99.90
45549;DHT22;31270;48.328;10.096;2022-11-20T16:45:12;4.90;99.90
45549;DHT22;31270;48.328;10.096;2022-11-20T16:47:37;4.80;99.90
45549;DHT22;31270;48.328;10.096;2022-11-20T16:50:05;4.80;99.90
45549;DHT22;31270;48.328;10.096;2022-11-20T16:52:31;4.80;99.90
45549;DHT22;31270;48.328;10.096;2022-11-20T16:54:57;4.80;99.90
45549;DHT22;31270;48.328;10.096;2022-11-20T16:57:26;4.80;99.90
45549;DHT22;31270;48.328;10.096;2022-11-20T16:59:52;4.70;99.90
45549;DHT22;31270;48.328;10.096;2022-11-20T17:02:17;4.70;99.90
45549;DHT22;31270;48.328;10.096;2022-11-20T17:04:43;4.70;99.90
45549;DHT22;31270;48.328;10.096;2022-11-20T17:07:09;4.80;99.90
45549;DHT22;31270;48.328;10.096;2022-11-20T17:09:36;4.70;99.90